sensor_id;sensor_type;location;lat;lon;timestamp;pressure;altitude;pressure_sealevel;temperature;humidity
61963;BME280;47927;42.646;23.096;2022-11-20T00:00:52;91520.91;;;16.40;54.20
61963;BME280;47927;42.646;23.096;2022-11-20T00:03:18;91518.22;;;15.91;56.08
61963;BME280;47927;42.646;23.096;2022-11-20T00:05:44;91505.56;;;16.39;54.84
61963;BME280;47927;42.646;23.096;2022-11-20T00:08:10;91521.22;;;15.74;56.80
61963;BME280;47927;42.646;23.096;2022-11-20T00:10:36;91492.59;;;15.59;56.77
61963;BME280;47927;42.646;23.096;2022-11-20T00:13:03;91488.00;;;15.63;57.10
61963;BME280;47927;42.646;23.096;2022-11-20T00:15:28;91488.09;;;15.96;56.44
61963;BME280;47927;42.646;23.096;2022-11-20T00:17:54;91495.09;;;16.19;55.76
61963;BME280;47927;42.646;23.096;2022-11-20T00:20:20;91483.72;;;16.71;54.68
61963;BME280;47927;42.646;23.096;2022-11-20T00:22:45;91485.41;;;17.11;53.15
61963;BME280;47927;42.646;23.096;2022-11-20T00:25:11;91493.22;;;16.03;56.35
61963;BME280;47927;42.646;23.096;2022-11-20T00:27:36;91480.66;;;15.38;59.27
61963;BME280;47927;42.646;23.096;2022-11-20T00:30:03;91458.34;;;15.46;58.87
61963;BME280;47927;42.646;23.096;2022-11-20T00:32:29;91482.22;;;15.72;58.48
61963;BME280;47927;42.646;23.096;2022-11-20T00:34:55;91480.94;;;15.80;58.33
61963;BME280;47927;42.646;23.096;2022-11-20T00:37:20;91481.59;;;15.84;58.67
61963;BME280;47927;42.646;23.096;2022-11-20T00:39:46;91489.66;;;15.93;58.39
61963;BME280;47927;42.646;23.096;2022-11-20T00:42:12;91489.09;;;15.46;59.33
61963;BME280;47927;42.646;23.096;2022-11-20T00:44:37;91514.41;;;15.56;59.48
61963;BME280;47927;42.646;23.096;2022-11-20T00:47:03;91492.69;;;15.56;58.98
61963;BME280;47927;42.646;23.096;2022-11-20T00:49:28;91500.03;;;15.44;59.48
61963;BME280;47927;42.646;23.096;2022-11-20T00:51:54;91504.81;;;15.30;60.14
61963;BME280;47927;42.646;23.096;2022-11-20T00:54:19;91487.97;;;15.47;59.65
61963;BME280;47927;42.646;23.096;2022-11-20T00:56:45;91498.59;;;15.96;57.98
61963;BME280;47927;42.646;23.096;2022-11-20T00:59:10;91506.78;;;16.34;56.88
61963;BME280;47927;42.646;23.096;2022-11-20T01:01:36;91501.84;;;16.20;56.39
61963;BME280;47927;42.646;23.096;2022-11-20T01:04:02;91507.53;;;15.82;57.86
61963;BME280;47927;42.646;23.096;2022-11-20T01:06:30;91497.13;;;15.95;57.41
61963;BME280;47927;42.646;23.096;2022-11-20T01:08:59;91498.44;;;15.87;57.67
61963;BME280;47927;42.646;23.096;2022-11-20T01:11:31;91488.19;;;15.92;57.52
61963;BME280;47927;42.646;23.096;2022-11-20T01:13:58;91483.09;;;16.02;56.94
61963;BME280;47927;42.646;23.096;2022-11-20T01:16:26;91477.94;;;16.14;56.62
61963;BME280;47927;42.646;23.096;2022-11-20T01:18:54;91477.78;;;16.22;56.44
61963;BME280;47927;42.646;23.096;2022-11-20T01:21:23;91472.00;;;15.58;58.30
61963;BME280;47927;42.646;23.096;2022-11-20T01:23:50;91463.22;;;15.64;58.10
61963;BME280;47927;42.646;23.096;2022-11-20T01:26:21;91452.06;;;15.80;57.65
61963;BME280;47927;42.646;23.096;2022-11-20T01:28:48;91468.78;;;15.50;58.35
61963;BME280;47927;42.646;23.096;2022-11-20T01:31:26;91448.16;;;15.12;59.43
61963;BME280;47927;42.646;23.096;2022-11-20T01:33:54;91447.28;;;15.55;58.76
61963;BME280;47927;42.646;23.096;2022-11-20T01:36:21;91453.78;;;15.67;57.97
61963;BME280;47927;42.646;23.096;2022-11-20T01:38:50;91445.09;;;15.54;58.60
61963;BME280;47927;42.646;23.096;2022-11-20T01:41:16;91451.97;;;16.00;57.38
61963;BME280;47927;42.646;23.096;2022-11-20T01:44:01;91444.56;;;15.42;58.81
61963;BME280;47927;42.646;23.096;2022-11-20T01:46:27;91442.47;;;15.34;59.45
61963;BME280;47927;42.646;23.096;2022-11-20T01:49:03;91453.72;;;15.34;59.08
61963;BME280;47927;42.646;23.096;2022-11-20T01:51:35;91443.53;;;15.56;58.19
61963;BME280;47927;42.646;23.096;2022-11-20T01:54:07;91444.91;;;15.81;57.58
61963;BME280;47927;42.646;23.096;2022-11-20T01:56:37;91463.56;;;15.86;57.35
61963;BME280;47927;42.646;23.096;2022-11-20T01:59:04;91461.09;;;16.45;55.62
61963;BME280;47927;42.646;23.096;2022-11-20T02:01:31;91480.00;;;16.07;55.98
61963;BME280;47927;42.646;23.096;2022-11-20T02:04:15;91462.72;;;15.53;57.54
61963;BME280;47927;42.646;23.096;2022-11-20T02:09:20;91459.94;;;15.80;56.61
61963;BME280;47927;42.646;23.096;2022-11-20T02:11:45;91455.81;;;15.79;56.78
61963;BME280;47927;42.646;23.096;2022-11-20T02:14:11;91447.78;;;15.86;56.34
61963;BME280;47927;42.646;23.096;2022-11-20T02:16:40;91458.25;;;15.70;57.04
61963;BME280;47927;42.646;23.096;2022-11-20T02:19:16;91466.09;;;15.90;56.25
61963;BME280;47927;42.646;23.096;2022-11-20T02:21:59;91461.56;;;15.74;56.75
61963;BME280;47927;42.646;23.096;2022-11-20T02:24:27;91469.63;;;15.83;56.46
61963;BME280;47927;42.646;23.096;2022-11-20T02:29:50;91476.03;;;16.15;55.43
61963;BME280;47927;42.646;23.096;2022-11-20T02:32:23;91474.72;;;15.90;56.22
61963;BME280;47927;42.646;23.096;2022-11-20T02:34:49;91490.66;;;16.16;55.64
61963;BME280;47927;42.646;23.096;2022-11-20T02:37:15;91503.16;;;16.45;55.03
61963;BME280;47927;42.646;23.096;2022-11-20T02:39:41;91494.63;;;16.57;54.94
61963;BME280;47927;42.646;23.096;2022-11-20T02:42:08;91506.56;;;16.74;54.14
61963;BME280;47927;42.646;23.096;2022-11-20T02:44:34;91499.50;;;16.71;54.13
61963;BME280;47927;42.646;23.096;2022-11-20T02:46:59;91523.75;;;16.30;55.66
61963;BME280;47927;42.646;23.096;2022-11-20T02:49:25;91523.34;;;16.15;56.09
61963;BME280;47927;42.646;23.096;2022-11-20T02:51:51;91523.94;;;16.06;56.41
61963;BME280;47927;42.646;23.096;2022-11-20T02:54:16;91530.78;;;16.00;56.84
61963;BME280;47927;42.646;23.096;2022-11-20T02:56:42;91528.19;;;16.16;56.60
61963;BME280;47927;42.646;23.096;2022-11-20T02:59:09;91538.94;;;17.04;54.10
61963;BME280;47927;42.646;23.096;2022-11-20T03:01:35;91544.06;;;16.29;55.50
61963;BME280;47927;42.646;23.096;2022-11-20T03:04:01;91527.13;;;16.14;56.11
61963;BME280;47927;42.646;23.096;2022-11-20T03:06:27;91545.50;;;16.14;56.66
61963;BME280;47927;42.646;23.096;2022-11-20T03:08:52;91547.41;;;16.30;56.29
61963;BME280;47927;42.646;23.096;2022-11-20T03:11:18;91531.50;;;16.37;55.95
61963;BME280;47927;42.646;23.096;2022-11-20T03:13:44;91552.78;;;16.59;55.60
61963;BME280;47927;42.646;23.096;2022-11-20T03:16:15;91543.00;;;16.59;55.18
61963;BME280;47927;42.646;23.096;2022-11-20T03:18:41;91537.00;;;16.92;54.72
61963;BME280;47927;42.646;23.096;2022-11-20T03:21:09;91547.19;;;16.73;54.50
61963;BME280;47927;42.646;23.096;2022-11-20T03:23:36;91552.84;;;15.86;57.46
61963;BME280;47927;42.646;23.096;2022-11-20T03:26:16;91543.38;;;16.09;57.05
61963;BME280;47927;42.646;23.096;2022-11-20T03:28:48;91561.38;;;16.10;56.78
61963;BME280;47927;42.646;23.096;2022-11-20T03:31:16;91561.66;;;15.96;57.12
61963;BME280;47927;42.646;23.096;2022-11-20T03:33:42;91546.09;;;15.85;57.36
61963;BME280;47927;42.646;23.096;2022-11-20T03:36:11;91549.41;;;15.49;58.25
61963;BME280;47927;42.646;23.096;2022-11-20T03:38:37;91554.25;;;15.51;58.57
61963;BME280;47927;42.646;23.096;2022-11-20T03:41:05;91550.41;;;15.95;56.83
61963;BME280;47927;42.646;23.096;2022-11-20T03:43:32;91532.81;;;16.12;55.87
61963;BME280;47927;42.646;23.096;2022-11-20T03:45:58;91530.88;;;15.97;56.75
61963;BME280;47927;42.646;23.096;2022-11-20T03:48:24;91524.38;;;15.65;57.62
61963;BME280;47927;42.646;23.096;2022-11-20T03:50:51;91541.94;;;16.40;55.47
61963;BME280;47927;42.646;23.096;2022-11-20T03:53:17;91548.25;;;15.90;56.70
61963;BME280;47927;42.646;23.096;2022-11-20T03:55:43;91554.69;;;16.06;56.68
61963;BME280;47927;42.646;23.096;2022-11-20T03:58:09;91557.88;;;15.97;56.79
61963;BME280;47927;42.646;23.096;2022-11-20T04:00:35;91539.38;;;15.84;56.79
61963;BME280;47927;42.646;23.096;2022-11-20T04:03:02;91540.84;;;15.85;57.39
61963;BME280;47927;42.646;23.096;2022-11-20T04:05:28;91545.69;;;16.23;55.95
61963;BME280;47927;42.646;23.096;2022-11-20T04:07:53;91533.81;;;16.51;55.07
61963;BME280;47927;42.646;23.096;2022-11-20T04:10:19;91536.56;;;16.11;56.19
61963;BME280;47927;42.646;23.096;2022-11-20T04:12:45;91541.91;;;16.08;55.92
61963;BME280;47927;42.646;23.096;2022-11-20T04:15:11;91550.78;;;15.38;57.65
61963;BME280;47927;42.646;23.096;2022-11-20T04:17:36;91524.69;;;15.07;58.80
61963;BME280;47927;42.646;23.096;2022-11-20T04:20:03;91526.00;;;15.19;58.46
61963;BME280;47927;42.646;23.096;2022-11-20T04:22:28;91540.78;;;15.09;58.86
61963;BME280;47927;42.646;23.096;2022-11-20T04:24:54;91529.09;;;15.34;57.89
61963;BME280;47927;42.646;23.096;2022-11-20T04:27:19;91546.94;;;15.42;57.86
61963;BME280;47927;42.646;23.096;2022-11-20T04:29:45;91547.22;;;15.68;57.10
61963;BME280;47927;42.646;23.096;2022-11-20T04:32:11;91548.28;;;15.50;57.85
61963;BME280;47927;42.646;23.096;2022-11-20T04:34:36;91558.81;;;15.70;57.09
61963;BME280;47927;42.646;23.096;2022-11-20T04:37:02;91555.31;;;15.14;59.23
61963;BME280;47927;42.646;23.096;2022-11-20T04:39:27;91545.63;;;15.11;59.35
61963;BME280;47927;42.646;23.096;2022-11-20T04:41:53;91544.78;;;15.77;57.31
61963;BME280;47927;42.646;23.096;2022-11-20T04:44:38;91540.00;;;15.72;57.74
61963;BME280;47927;42.646;23.096;2022-11-20T04:47:04;91532.50;;;15.90;57.28
61963;BME280;47927;42.646;23.096;2022-11-20T04:49:29;91517.97;;;15.66;58.07
61963;BME280;47927;42.646;23.096;2022-11-20T04:51:57;91531.66;;;15.57;58.67
61963;BME280;47927;42.646;23.096;2022-11-20T04:54:22;91525.41;;;15.71;58.53
61963;BME280;47927;42.646;23.096;2022-11-20T04:56:48;91507.28;;;15.57;58.94
61963;BME280;47927;42.646;23.096;2022-11-20T04:59:14;91508.09;;;15.34;59.92
61963;BME280;47927;42.646;23.096;2022-11-20T05:01:40;91501.28;;;14.96;61.33
61963;BME280;47927;42.646;23.096;2022-11-20T05:04:06;91499.00;;;14.98;62.08
61963;BME280;47927;42.646;23.096;2022-11-20T05:06:32;91499.78;;;14.75;63.03
61963;BME280;47927;42.646;23.096;2022-11-20T05:08:58;91509.41;;;14.58;63.79
61963;BME280;47927;42.646;23.096;2022-11-20T05:11:23;91506.25;;;14.44;65.09
61963;BME280;47927;42.646;23.096;2022-11-20T05:13:50;91513.06;;;14.65;64.34
61963;BME280;47927;42.646;23.096;2022-11-20T05:16:23;91510.84;;;14.12;66.92
61963;BME280;47927;42.646;23.096;2022-11-20T05:18:50;91526.63;;;14.32;66.04
61963;BME280;47927;42.646;23.096;2022-11-20T05:21:17;91522.84;;;14.84;63.98
61963;BME280;47927;42.646;23.096;2022-11-20T05:24:01;91538.34;;;14.24;66.48
61963;BME280;47927;42.646;23.096;2022-11-20T05:26:26;91529.91;;;14.40;66.67
61963;BME280;47927;42.646;23.096;2022-11-20T05:28:52;91540.19;;;14.78;65.60
61963;BME280;47927;42.646;23.096;2022-11-20T05:31:20;91548.28;;;15.50;62.72
61963;BME280;47927;42.646;23.096;2022-11-20T05:33:46;91550.56;;;15.48;62.16
61963;BME280;47927;42.646;23.096;2022-11-20T05:36:13;91544.97;;;15.66;61.63
61963;BME280;47927;42.646;23.096;2022-11-20T05:38:40;91551.28;;;16.25;60.01
61963;BME280;47927;42.646;23.096;2022-11-20T05:41:07;91551.88;;;16.66;58.54
61963;BME280;47927;42.646;23.096;2022-11-20T05:43:34;91549.91;;;17.02;57.13
61963;BME280;47927;42.646;23.096;2022-11-20T05:46:00;91540.44;;;17.05;56.85
61963;BME280;47927;42.646;23.096;2022-11-20T05:48:26;91526.00;;;16.80;57.41
61963;BME280;47927;42.646;23.096;2022-11-20T05:50:52;91537.63;;;15.58;60.55
61963;BME280;47927;42.646;23.096;2022-11-20T05:53:17;91544.22;;;16.22;59.42
61963;BME280;47927;42.646;23.096;2022-11-20T05:55:43;91542.94;;;16.63;57.68
61963;BME280;47927;42.646;23.096;2022-11-20T05:58:09;91538.38;;;16.14;58.45
61963;BME280;47927;42.646;23.096;2022-11-20T06:00:34;91544.97;;;16.23;59.03
61963;BME280;47927;42.646;23.096;2022-11-20T06:03:01;91543.88;;;16.20;58.83
61963;BME280;47927;42.646;23.096;2022-11-20T06:05:26;91541.19;;;16.40;58.39
61963;BME280;47927;42.646;23.096;2022-11-20T06:07:52;91545.69;;;15.67;60.53
61963;BME280;47927;42.646;23.096;2022-11-20T06:10:17;91549.56;;;16.18;59.48
61963;BME280;47927;42.646;23.096;2022-11-20T06:12:43;91549.34;;;15.93;59.98
61963;BME280;47927;42.646;23.096;2022-11-20T06:15:09;91562.81;;;15.75;60.91
61963;BME280;47927;42.646;23.096;2022-11-20T06:17:35;91540.06;;;15.48;61.79
61963;BME280;47927;42.646;23.096;2022-11-20T06:20:00;91537.69;;;15.34;62.24
61963;BME280;47927;42.646;23.096;2022-11-20T06:22:26;91556.00;;;15.18;62.61
61963;BME280;47927;42.646;23.096;2022-11-20T06:24:51;91553.47;;;16.10;60.28
61963;BME280;47927;42.646;23.096;2022-11-20T06:27:17;91555.66;;;16.97;57.54
61963;BME280;47927;42.646;23.096;2022-11-20T06:29:43;91549.56;;;16.68;57.88
61963;BME280;47927;42.646;23.096;2022-11-20T06:32:08;91539.63;;;16.43;58.82
61963;BME280;47927;42.646;23.096;2022-11-20T06:34:34;91546.16;;;16.87;57.47
61963;BME280;47927;42.646;23.096;2022-11-20T06:37:00;91546.28;;;16.96;57.35
61963;BME280;47927;42.646;23.096;2022-11-20T06:39:25;91548.84;;;16.67;58.59
61963;BME280;47927;42.646;23.096;2022-11-20T06:41:51;91542.38;;;17.17;56.74
61963;BME280;47927;42.646;23.096;2022-11-20T06:44:16;91551.41;;;17.16;56.64
61963;BME280;47927;42.646;23.096;2022-11-20T06:46:42;91555.75;;;16.94;57.27
61963;BME280;47927;42.646;23.096;2022-11-20T06:49:07;91557.94;;;18.12;53.66
61963;BME280;47927;42.646;23.096;2022-11-20T06:51:33;91552.72;;;17.24;55.52
61963;BME280;47927;42.646;23.096;2022-11-20T06:53:58;91555.97;;;17.45;55.63
61963;BME280;47927;42.646;23.096;2022-11-20T06:56:26;91573.59;;;17.02;55.95
61963;BME280;47927;42.646;23.096;2022-11-20T06:58:51;91575.31;;;16.93;56.08
61963;BME280;47927;42.646;23.096;2022-11-20T07:01:17;91588.38;;;16.11;59.20
61963;BME280;47927;42.646;23.096;2022-11-20T07:03:43;91586.72;;;15.81;60.38
61963;BME280;47927;42.646;23.096;2022-11-20T07:06:08;91585.56;;;15.62;61.05
61963;BME280;47927;42.646;23.096;2022-11-20T07:08:34;91593.41;;;14.98;63.44
61963;BME280;47927;42.646;23.096;2022-11-20T07:11:02;91596.59;;;15.33;62.37
61963;BME280;47927;42.646;23.096;2022-11-20T07:13:28;91601.69;;;14.97;63.62
61963;BME280;47927;42.646;23.096;2022-11-20T07:15:54;91599.09;;;15.17;63.21
61963;BME280;47927;42.646;23.096;2022-11-20T07:18:20;91583.13;;;14.88;64.02
61963;BME280;47927;42.646;23.096;2022-11-20T07:20:46;91598.78;;;14.68;65.13
61963;BME280;47927;42.646;23.096;2022-11-20T07:23:12;91603.53;;;14.76;64.77
61963;BME280;47927;42.646;23.096;2022-11-20T07:25:37;91605.34;;;15.03;64.35
61963;BME280;47927;42.646;23.096;2022-11-20T07:28:03;91605.72;;;14.78;65.42
61963;BME280;47927;42.646;23.096;2022-11-20T07:30:29;91602.28;;;14.85;65.10
61963;BME280;47927;42.646;23.096;2022-11-20T07:32:56;91600.81;;;14.56;66.05
61963;BME280;47927;42.646;23.096;2022-11-20T07:35:22;91600.69;;;14.91;64.38
61963;BME280;47927;42.646;23.096;2022-11-20T07:37:48;91589.66;;;15.23;63.40
61963;BME280;47927;42.646;23.096;2022-11-20T07:40:15;91585.66;;;15.35;62.67
61963;BME280;47927;42.646;23.096;2022-11-20T07:42:49;91597.19;;;14.97;64.26
61963;BME280;47927;42.646;23.096;2022-11-20T07:45:16;91597.69;;;14.65;65.56
61963;BME280;47927;42.646;23.096;2022-11-20T07:47:42;91586.53;;;14.85;64.54
61963;BME280;47927;42.646;23.096;2022-11-20T07:50:08;91605.50;;;14.92;64.45
61963;BME280;47927;42.646;23.096;2022-11-20T07:52:33;91611.09;;;14.94;64.56
61963;BME280;47927;42.646;23.096;2022-11-20T07:55:17;91594.09;;;15.46;63.06
61963;BME280;47927;42.646;23.096;2022-11-20T07:57:43;91615.00;;;15.53;62.05
61963;BME280;47927;42.646;23.096;2022-11-20T08:00:10;91613.28;;;15.23;63.83
61963;BME280;47927;42.646;23.096;2022-11-20T08:02:40;91612.56;;;15.62;62.31
61963;BME280;47927;42.646;23.096;2022-11-20T08:05:07;91607.84;;;15.10;64.27
61963;BME280;47927;42.646;23.096;2022-11-20T08:07:40;91611.97;;;15.11;64.71
61963;BME280;47927;42.646;23.096;2022-11-20T08:10:08;91607.09;;;14.86;66.05
61963;BME280;47927;42.646;23.096;2022-11-20T08:12:34;91606.66;;;14.91;66.03
61963;BME280;47927;42.646;23.096;2022-11-20T08:15:18;91592.44;;;15.76;64.61
61963;BME280;47927;42.646;23.096;2022-11-20T08:17:43;91595.88;;;15.92;63.50
61963;BME280;47927;42.646;23.096;2022-11-20T08:20:09;91601.03;;;15.36;65.27
61963;BME280;47927;42.646;23.096;2022-11-20T08:22:35;91611.53;;;14.66;68.37
61963;BME280;47927;42.646;23.096;2022-11-20T08:25:00;91611.06;;;14.17;71.55
61963;BME280;47927;42.646;23.096;2022-11-20T08:27:26;91603.91;;;14.21;72.20
61963;BME280;47927;42.646;23.096;2022-11-20T08:29:52;91611.22;;;14.64;70.23
61963;BME280;47927;42.646;23.096;2022-11-20T08:32:17;91597.97;;;14.44;70.08
61963;BME280;47927;42.646;23.096;2022-11-20T08:34:43;91618.44;;;14.79;69.30
61963;BME280;47927;42.646;23.096;2022-11-20T08:37:08;91628.47;;;14.61;69.94
61963;BME280;47927;42.646;23.096;2022-11-20T08:39:34;91626.22;;;14.59;69.98
61963;BME280;47927;42.646;23.096;2022-11-20T08:42:00;91634.97;;;14.19;71.78
61963;BME280;47927;42.646;23.096;2022-11-20T08:44:25;91634.88;;;13.99;73.53
61963;BME280;47927;42.646;23.096;2022-11-20T08:46:51;91642.72;;;13.64;74.47
61963;BME280;47927;42.646;23.096;2022-11-20T08:49:16;91628.78;;;13.75;73.44
61963;BME280;47927;42.646;23.096;2022-11-20T08:51:43;91627.75;;;13.99;71.56
61963;BME280;47927;42.646;23.096;2022-11-20T08:54:08;91625.91;;;14.27;70.69
61963;BME280;47927;42.646;23.096;2022-11-20T08:56:35;91633.16;;;14.73;69.62
61963;BME280;47927;42.646;23.096;2022-11-20T08:59:00;91639.66;;;14.04;71.59
61963;BME280;47927;42.646;23.096;2022-11-20T09:01:27;91649.97;;;14.45;70.41
61963;BME280;47927;42.646;23.096;2022-11-20T09:03:55;91640.41;;;14.35;70.69
61963;BME280;47927;42.646;23.096;2022-11-20T09:06:22;91635.63;;;14.57;70.01
61963;BME280;47927;42.646;23.096;2022-11-20T09:08:51;91644.03;;;14.72;69.35
61963;BME280;47927;42.646;23.096;2022-11-20T09:11:17;91645.34;;;14.29;69.83
61963;BME280;47927;42.646;23.096;2022-11-20T09:13:43;91640.84;;;14.61;69.58
61963;BME280;47927;42.646;23.096;2022-11-20T09:16:08;91649.00;;;14.90;68.50
61963;BME280;47927;42.646;23.096;2022-11-20T09:18:35;91641.06;;;14.70;69.38
61963;BME280;47927;42.646;23.096;2022-11-20T09:21:10;91642.63;;;15.38;67.45
61963;BME280;47927;42.646;23.096;2022-11-20T09:23:36;91639.00;;;15.52;66.60
61963;BME280;47927;42.646;23.096;2022-11-20T09:28:30;91602.03;;;16.22;65.12
61963;BME280;47927;42.646;23.096;2022-11-20T09:30:56;91614.00;;;16.07;64.92
61963;BME280;47927;42.646;23.096;2022-11-20T09:33:22;91612.19;;;15.84;66.55
61963;BME280;47927;42.646;23.096;2022-11-20T09:35:47;91594.16;;;16.22;66.12
61963;BME280;47927;42.646;23.096;2022-11-20T09:38:13;91600.63;;;16.54;64.57
61963;BME280;47927;42.646;23.096;2022-11-20T09:40:45;91601.25;;;15.65;67.98
61963;BME280;47927;42.646;23.096;2022-11-20T09:46:11;91596.88;;;16.35;65.77
61963;BME280;47927;42.646;23.096;2022-11-20T09:51:29;91596.53;;;16.85;63.17
61963;BME280;47927;42.646;23.096;2022-11-20T09:54:16;91587.13;;;17.01;63.98
61963;BME280;47927;42.646;23.096;2022-11-20T09:57:34;91591.38;;;17.27;63.22
61963;BME280;47927;42.646;23.096;2022-11-20T09:59:40;91574.72;;;17.47;60.91
61963;BME280;47927;42.646;23.096;2022-11-20T10:02:28;91585.53;;;17.36;62.27
61963;BME280;47927;42.646;23.096;2022-11-20T10:07:30;91576.94;;;17.48;63.23
61963;BME280;47927;42.646;23.096;2022-11-20T10:09:59;91576.78;;;17.68;61.59
61963;BME280;47927;42.646;23.096;2022-11-20T10:12:49;91585.59;;;17.03;62.80
61963;BME280;47927;42.646;23.096;2022-11-20T10:28:47;91604.59;;;15.26;68.31
61963;BME280;47927;42.646;23.096;2022-11-20T10:33:56;91596.25;;;14.84;71.11
61963;BME280;47927;42.646;23.096;2022-11-20T10:36:27;91577.69;;;14.75;71.82
61963;BME280;47927;42.646;23.096;2022-11-20T10:39:01;91584.06;;;14.74;69.85
61963;BME280;47927;42.646;23.096;2022-11-20T10:41:34;91601.56;;;13.99;70.74
61963;BME280;47927;42.646;23.096;2022-11-20T10:44:12;91612.97;;;13.10;69.82
61963;BME280;47927;42.646;23.096;2022-11-20T10:46:45;91591.19;;;12.30;73.34
61963;BME280;47927;42.646;23.096;2022-11-20T10:49:14;91570.72;;;12.73;72.86
61963;BME280;47927;42.646;23.096;2022-11-20T10:54:36;91547.69;;;12.61;73.61
61963;BME280;47927;42.646;23.096;2022-11-20T10:59:54;91569.38;;;12.96;71.17
61963;BME280;47927;42.646;23.096;2022-11-20T11:02:24;91555.97;;;11.93;73.98
61963;BME280;47927;42.646;23.096;2022-11-20T11:04:52;91562.66;;;11.98;74.87
61963;BME280;47927;42.646;23.096;2022-11-20T11:07:35;91547.19;;;12.28;73.26
61963;BME280;47927;42.646;23.096;2022-11-20T11:10:21;91539.19;;;12.50;71.00
61963;BME280;47927;42.646;23.096;2022-11-20T11:12:48;91534.66;;;12.02;72.04
61963;BME280;47927;42.646;23.096;2022-11-20T11:15:25;91542.69;;;12.25;70.61
61963;BME280;47927;42.646;23.096;2022-11-20T11:17:52;91558.72;;;12.80;68.96
61963;BME280;47927;42.646;23.096;2022-11-20T11:20:25;91559.06;;;12.33;69.94
61963;BME280;47927;42.646;23.096;2022-11-20T11:22:56;91558.28;;;12.40;69.68
61963;BME280;47927;42.646;23.096;2022-11-20T11:25:33;91561.78;;;12.71;70.33
61963;BME280;47927;42.646;23.096;2022-11-20T11:28:04;91585.28;;;12.71;68.93
61963;BME280;47927;42.646;23.096;2022-11-20T11:30:41;91582.91;;;12.87;68.98
61963;BME280;47927;42.646;23.096;2022-11-20T11:33:21;91597.66;;;12.63;69.22
61963;BME280;47927;42.646;23.096;2022-11-20T11:35:49;91594.97;;;12.18;71.67
61963;BME280;47927;42.646;23.096;2022-11-20T11:38:36;91607.34;;;12.07;71.94
61963;BME280;47927;42.646;23.096;2022-11-20T11:41:04;91603.03;;;11.64;74.11
61963;BME280;47927;42.646;23.096;2022-11-20T11:43:35;91599.72;;;12.34;72.21
61963;BME280;47927;42.646;23.096;2022-11-20T11:48:56;91613.44;;;12.49;70.92
61963;BME280;47927;42.646;23.096;2022-11-20T11:51:25;91609.59;;;12.68;70.65
61963;BME280;47927;42.646;23.096;2022-11-20T11:53:52;91610.09;;;12.97;69.57
61963;BME280;47927;42.646;23.096;2022-11-20T11:56:17;91597.31;;;13.06;69.78
61963;BME280;47927;42.646;23.096;2022-11-20T11:58:48;91594.72;;;13.44;68.66
61963;BME280;47927;42.646;23.096;2022-11-20T12:01:35;91598.28;;;13.61;66.84
61963;BME280;47927;42.646;23.096;2022-11-20T12:07:04;91607.31;;;14.18;65.41
61963;BME280;47927;42.646;23.096;2022-11-20T12:09:39;91602.03;;;14.48;64.36
61963;BME280;47927;42.646;23.096;2022-11-20T12:12:17;91599.16;;;14.66;64.10
61963;BME280;47927;42.646;23.096;2022-11-20T12:14:47;91596.03;;;14.21;64.12
61963;BME280;47927;42.646;23.096;2022-11-20T12:17:15;91604.06;;;14.10;64.25
61963;BME280;47927;42.646;23.096;2022-11-20T12:19:41;91605.81;;;13.86;64.53
61963;BME280;47927;42.646;23.096;2022-11-20T12:25:20;91595.50;;;13.75;66.47
61963;BME280;47927;42.646;23.096;2022-11-20T12:30:38;91582.38;;;14.64;63.89
61963;BME280;47927;42.646;23.096;2022-11-20T12:53:48;91563.03;;;15.01;62.14
61963;BME280;47927;42.646;23.096;2022-11-20T12:59:16;91556.13;;;14.87;63.98
61963;BME280;47927;42.646;23.096;2022-11-20T13:01:48;91543.19;;;15.00;63.45
61963;BME280;47927;42.646;23.096;2022-11-20T13:07:07;91536.81;;;15.21;61.45
61963;BME280;47927;42.646;23.096;2022-11-20T13:09:37;91540.31;;;14.44;62.37
61963;BME280;47927;42.646;23.096;2022-11-20T13:12:13;91541.25;;;14.80;62.55
61963;BME280;47927;42.646;23.096;2022-11-20T13:17:33;91541.94;;;15.28;59.58
61963;BME280;47927;42.646;23.096;2022-11-20T13:20:05;91540.88;;;15.45;60.79
61963;BME280;47927;42.646;23.096;2022-11-20T13:22:44;91542.94;;;15.54;61.15
61963;BME280;47927;42.646;23.096;2022-11-20T13:25:34;91532.38;;;15.58;60.83
61963;BME280;47927;42.646;23.096;2022-11-20T13:28:04;91532.25;;;15.65;61.28
61963;BME280;47927;42.646;23.096;2022-11-20T13:30:31;91533.09;;;15.58;61.74
61963;BME280;47927;42.646;23.096;2022-11-20T13:35:59;91526.78;;;15.76;61.73
61963;BME280;47927;42.646;23.096;2022-11-20T13:38:25;91522.69;;;15.55;62.31
61963;BME280;47927;42.646;23.096;2022-11-20T13:43:42;91528.75;;;15.91;62.28
61963;BME280;47927;42.646;23.096;2022-11-20T13:46:10;91546.50;;;16.04;61.92
61963;BME280;47927;42.646;23.096;2022-11-20T13:48:45;91532.84;;;16.09;62.12
61963;BME280;47927;42.646;23.096;2022-11-20T14:01:51;91525.84;;;15.86;62.40
61963;BME280;47927;42.646;23.096;2022-11-20T14:04:21;91518.69;;;16.23;61.69
61963;BME280;47927;42.646;23.096;2022-11-20T14:06:51;91501.84;;;16.36;61.73
61963;BME280;47927;42.646;23.096;2022-11-20T14:09:28;91509.16;;;16.29;60.74
61963;BME280;47927;42.646;23.096;2022-11-20T14:11:54;91505.84;;;16.08;60.70
61963;BME280;47927;42.646;23.096;2022-11-20T14:14:23;91501.19;;;16.32;60.75
61963;BME280;47927;42.646;23.096;2022-11-20T14:16:51;91495.03;;;16.06;60.79
61963;BME280;47927;42.646;23.096;2022-11-20T14:21:46;91487.19;;;15.86;62.60
61963;BME280;47927;42.646;23.096;2022-11-20T14:24:13;91484.81;;;16.08;62.06
61963;BME280;47927;42.646;23.096;2022-11-20T14:26:45;91467.34;;;16.02;62.60
61963;BME280;47927;42.646;23.096;2022-11-20T14:29:16;91477.13;;;16.34;61.73
61963;BME280;47927;42.646;23.096;2022-11-20T14:31:44;91486.06;;;16.36;61.30
61963;BME280;47927;42.646;23.096;2022-11-20T14:34:17;91478.09;;;16.24;60.86